createdAt,value
2019-04-10T09:00:54.261Z,34.23
2019-04-10T09:03:24.899Z,35.53
2019-04-10T09:05:55.429Z,31.87
2019-04-10T09:08:26.644Z,39.63
2019-04-10T09:10:57.412Z,35.93
2019-04-10T09:13:28.499Z,35.17
2019-04-10T09:16:00.454Z,33.67
2019-04-10T09:18:31.611Z,35.90
2019-04-10T09:21:02.782Z,29.07
2019-04-10T09:23:44.394Z,34.27
2019-04-10T09:26:06.174Z,31.27
2019-04-10T09:28:36.905Z,31.23
2019-04-10T09:31:07.492Z,30.77
2019-04-10T09:33:38.959Z,31.30
2019-04-10T09:36:09.591Z,33.53
2019-04-10T09:38:41.028Z,31.57
2019-04-10T09:41:11.975Z,30.83
2019-04-10T09:43:42.909Z,33.00
2019-04-10T09:46:13.446Z,28.27
2019-04-10T09:48:44.392Z,26.17
2019-04-10T09:51:18.016Z,24.47
2019-04-10T09:53:48.936Z,25.13
2019-04-10T09:56:19.588Z,26.00
2019-04-10T09:58:50.429Z,26.97
2019-04-10T10:01:22.057Z,23.27
2019-04-10T10:03:52.832Z,20.10
2019-04-10T10:06:30.190Z,21.23
2019-04-10T10:08:56.440Z,23.10
2019-04-10T10:11:27.235Z,25.27
2019-04-10T10:13:58.474Z,20.03
2019-04-10T10:16:30.360Z,22.10
2019-04-10T10:19:01.613Z,21.13
2019-04-10T10:21:32.478Z,21.67
2019-04-10T10:24:04.544Z,23.27
2019-04-10T10:26:35.056Z,19.13
2019-04-10T10:29:05.557Z,21.20
2019-04-10T10:31:36.167Z,21.63
2019-04-10T10:34:06.762Z,20.90
2019-04-10T10:36:41.918Z,19.00
2019-04-10T10:39:17.530Z,18.13
2019-04-10T10:41:50.947Z,22.20
2019-04-10T10:44:21.892Z,20.00
2019-04-10T10:47:04.567Z,19.60
2019-04-10T10:49:35.012Z,20.60
2019-04-10T10:52:05.497Z,19.47
2019-04-10T10:54:36.977Z,20.03
2019-04-10T10:57:07.589Z,19.47
2019-04-10T10:59:38.130Z,17.37
2019-04-10T11:02:10.650Z,17.40
2019-04-10T11:04:41.336Z,18.77
2019-04-10T11:07:12.370Z,18.23
2019-04-10T11:09:44.210Z,20.17
2019-04-10T11:12:16.061Z,15.83
2019-04-10T11:14:48.061Z,17.43
2019-04-10T11:17:19.698Z,16.07
2019-04-10T11:19:51.387Z,16.13
2019-04-10T11:22:24.037Z,18.83
2019-04-10T11:24:55.615Z,14.97
2019-04-10T11:27:27.735Z,15.00
2019-04-10T11:29:59.895Z,14.37
2019-04-10T11:32:30.972Z,13.87
2019-04-10T11:35:03.283Z,12.83
2019-04-10T11:40:08.469Z,12.67
2019-04-10T11:42:40.060Z,14.07
2019-04-10T11:45:13.716Z,13.93
2019-04-10T11:47:44.926Z,14.10
2019-04-10T11:50:18.339Z,13.33
2019-04-10T11:52:52.393Z,15.53
2019-04-10T11:55:25.095Z,15.93
2019-04-10T11:57:54.426Z,16.60
2019-04-10T12:00:45.374Z,16.27
2019-04-10T12:03:12.762Z,16.17
2019-04-10T12:05:46.217Z,15.37
2019-04-10T12:08:41.621Z,14.23
2019-04-10T12:13:20.593Z,12.30
2019-04-10T12:15:52.511Z,13.23
2019-04-10T12:18:24.698Z,14.03
2019-04-10T12:20:55.619Z,15.07
2019-04-10T12:23:27.222Z,15.47
2019-04-10T12:25:57.792Z,13.97
2019-04-10T12:28:29.872Z,14.73
2019-04-10T12:31:01.675Z,14.40
2019-04-10T12:33:33.695Z,13.57
2019-04-10T12:36:06.603Z,13.47
2019-04-10T12:38:37.534Z,12.67
2019-04-10T12:41:08.939Z,13.17
2019-04-10T12:43:39.533Z,13.17
2019-04-10T12:46:10.773Z,13.03
2019-04-10T12:48:41.334Z,12.53
2019-04-10T12:51:11.905Z,10.67
2019-04-10T12:53:43.595Z,11.57
2019-04-10T12:56:15.767Z,10.63
2019-04-10T12:58:47.515Z,10.03
2019-04-10T13:01:18.435Z,10.33
2019-04-10T13:03:49.481Z,10.40
2019-04-10T13:06:20.120Z,11.43
2019-04-10T13:09:00.892Z,12.70
2019-04-10T13:11:23.153Z,12.63
2019-04-10T13:13:54.613Z,12.07
2019-04-10T13:16:25.780Z,11.20
2019-04-10T13:18:56.548Z,10.83
2019-04-10T13:21:27.201Z,10.37
2019-04-10T13:23:57.672Z,12.00
2019-04-10T13:26:28.191Z,11.53
2019-04-10T13:28:58.732Z,17.43
2019-04-10T13:31:29.686Z,22.60
2019-04-10T13:34:01.300Z,26.47
2019-04-10T13:36:31.840Z,30.57
2019-04-10T13:39:02.472Z,32.37
2019-04-10T13:41:34.569Z,31.67
2019-04-10T13:44:06.497Z,33.63
2019-04-10T13:46:37.300Z,30.23
2019-04-10T13:49:09.443Z,31.80
2019-04-10T13:51:40.069Z,32.67
2019-04-10T13:54:10.532Z,32.57
2019-04-10T13:56:41.374Z,32.97
2019-04-10T13:59:13.822Z,32.77
2019-04-10T14:01:44.116Z,34.53
2019-04-10T14:04:14.731Z,36.27
2019-04-10T14:06:48.564Z,33.97
2019-04-10T14:09:30.091Z,34.70
2019-04-10T14:11:53.377Z,38.47
2019-04-10T14:14:24.534Z,40.57
2019-04-10T14:16:55.118Z,39.43
2019-04-10T14:19:27.741Z,42.30
2019-04-10T14:21:59.704Z,41.83
2019-04-10T14:24:40.359Z,42.93
2019-04-10T14:27:11.959Z,44.90
2019-04-10T14:29:42.687Z,43.43
2019-04-10T14:32:20.790Z,45.00
2019-04-10T14:34:52.433Z,41.90
2019-04-10T14:37:23.670Z,44.67
2019-04-10T14:39:55.651Z,43.63
2019-04-10T14:42:26.602Z,45.30
2019-04-10T14:44:59.251Z,46.13
2019-04-10T14:47:30.052Z,47.50
2019-04-10T14:50:00.501Z,45.83
2019-04-10T14:52:31.317Z,47.67
2019-04-10T14:55:02.085Z,45.97
2019-04-10T14:57:32.863Z,47.70
2019-04-10T15:00:04.317Z,46.63
2019-04-10T15:02:36.923Z,47.83
2019-04-10T15:05:08.048Z,49.97
2019-04-10T15:07:39.385Z,45.83
2019-04-10T15:10:10.378Z,49.60
2019-04-10T15:12:41.613Z,52.60
2019-04-10T15:15:12.271Z,54.20
2019-04-10T15:17:42.796Z,52.47
2019-04-10T15:20:15.200Z,52.93
2019-04-10T15:22:47.629Z,53.63
2019-04-10T15:25:19.228Z,49.80
2019-04-10T15:27:50.257Z,52.97
2019-04-10T15:30:22.227Z,51.97
2019-04-10T15:32:53.898Z,52.80
2019-04-10T15:35:24.427Z,49.27
2019-04-10T15:37:55.718Z,54.17
2019-04-10T15:40:27.643Z,55.67
2019-04-10T15:42:59.343Z,55.67
2019-04-10T15:45:30.204Z,53.70
2019-04-10T15:48:01.757Z,54.23
2019-04-10T15:50:34.666Z,50.57
2019-04-10T15:53:05.280Z,54.53
2019-04-10T15:55:35.995Z,51.70
2019-04-10T15:58:06.791Z,53.47
2019-04-10T16:00:37.410Z,53.23
2019-04-10T16:03:09.235Z,50.87
2019-04-10T16:05:39.994Z,49.10
2019-04-10T16:08:14.139Z,46.40
2019-04-10T16:11:03.590Z,37.93
2019-04-10T16:13:44.267Z,36.53
2019-04-10T16:16:49.400Z,35.03
2019-04-10T16:19:45.171Z,36.00
2019-04-10T16:22:23.488Z,36.97
2019-04-10T16:24:55.490Z,33.00
2019-04-10T16:27:26.084Z,34.47
2019-04-10T16:29:56.705Z,34.97
2019-04-10T16:32:29.602Z,34.33
2019-04-10T16:35:00.129Z,37.57
2019-04-10T16:37:31.367Z,36.67
2019-04-10T16:40:04.376Z,37.60
2019-04-10T16:42:34.992Z,38.37
2019-04-10T16:45:06.333Z,41.20
2019-04-10T16:47:36.871Z,42.70
2019-04-10T16:50:07.493Z,39.00
2019-04-10T16:52:38.984Z,41.53
2019-04-10T16:55:10.909Z,42.27
2019-04-10T16:57:41.484Z,44.97
2019-04-10T17:00:14.106Z,47.23
2019-04-10T17:02:44.464Z,49.07
2019-04-10T17:05:16.421Z,46.83
2019-04-10T17:07:47.488Z,43.00
2019-04-10T17:10:24.555Z,47.70
2019-04-10T17:12:53.930Z,50.33
2019-04-10T17:15:25.969Z,49.07
2019-04-10T17:17:57.137Z,50.60
2019-04-10T17:20:28.774Z,47.23
2019-04-10T17:23:00.764Z,57.30
2019-04-10T17:25:31.290Z,54.70
2019-04-10T17:28:01.911Z,53.07
2019-04-10T17:30:33.785Z,56.50
2019-04-10T17:33:04.896Z,51.73
2019-04-10T17:35:35.926Z,51.47
2019-04-10T17:38:06.842Z,52.17
2019-04-10T17:40:45.848Z,54.17
2019-04-10T17:43:10.627Z,53.77
2019-04-10T17:45:41.232Z,56.73
2019-04-10T17:48:11.820Z,53.03
2019-04-10T17:50:43.735Z,50.17
2019-04-10T17:53:16.562Z,55.17
2019-04-10T17:55:47.441Z,59.33
2019-04-10T17:58:19.095Z,59.20
2019-04-10T18:00:52.026Z,58.27
2019-04-10T18:03:23.404Z,62.43
2019-04-10T18:05:55.037Z,59.07
2019-04-10T18:08:27.101Z,57.23
2019-04-10T18:10:58.715Z,58.10
2019-04-10T18:13:29.325Z,50.03
2019-04-10T18:16:00.202Z,56.97
2019-04-10T18:18:31.643Z,59.13
2019-04-10T18:21:02.334Z,58.47
2019-04-10T18:23:33.602Z,57.53
2019-04-10T18:26:04.708Z,53.93
2019-04-10T18:28:36.411Z,58.13
2019-04-10T18:31:08.244Z,63.63
2019-04-10T18:33:38.920Z,60.03
2019-04-10T18:36:09.497Z,61.03
2019-04-10T18:38:40.148Z,59.10
2019-04-10T18:41:11.745Z,58.30
2019-04-10T18:43:42.538Z,62.03
2019-04-10T18:46:19.069Z,61.20
2019-04-10T18:48:49.514Z,60.63
2019-04-10T18:51:21.428Z,59.70
